An Xiu Shan — BRQV — position and weather

sailwx.info

Track history (hours):
 
Tides and Currents Weather Stations Pressure Air Temp Water Temp Dewpoint Dewpoint Depression Visibility Wind Speed Wind Dir Waves Ship Positions

An Xiu Shan

Last reported at 2016-Feb-08 22:28 UTC. Time now 2016-Feb-09 13:55 UTC.
Position N 31°06' E 122°31'.

Length 199 m; draft 7.5 m.

Type: Cargo ship. MMSI: 413195000.

Date/timePositionNaut miles runAvg speedWind from/ knotsBaromVisibWave heightAir tempDewpointWater temp
2016-Feb-08 22:28N 31°06' E 122°31'1111.8
2016-Feb-08 21:31N 31°07' E 122°17'1414.5
2016-Feb-08 20:31N 31°14' E 122°03'1414.7
2016-Feb-08 19:34N 31°18' E 121°47'1212.4
2016-Feb-08 18:33N 31°24' E 121°34'1110.7
2016-Feb-08 17:33N 31°30' E 121°24'10 9.6
2016-Feb-08 16:33N 31°37' E 121°16'1111.2
2016-Feb-08 15:33N 31°44' E 121°06'1312.9
2016-Feb-08 14:32N 31°52' E 120°53'1211.9
2016-Feb-08 13:31N 32°00' E 120°43'1211.9
2016-Feb-08 12:31N 32°04' E 120°30'1512.8
2016-Feb-08 11:20N 31°56' E 120°15'1012.1
2016-Feb-08 10:29N 31°58' E 120°03'  
2016-Feb-05 21:06N 32°10' E 119°54'6 9.6
2016-Feb-05 20:29N 32°04' E 119°56'9 9.5
2016-Feb-05 19:32N 31°58' E 120°03'1010.2
2016-Feb-05 18:31N 31°56' E 120°15'10 9.8
2016-Feb-05 17:33N 31°58' E 120°26'7 6.7
2016-Feb-05 16:28N 32°01' E 120°34'1010.4
2016-Feb-05 15:32N 32°01' E 120°46'9 9.1
2016-Feb-05 14:32N 31°54' E 120°53'9 8.8
2016-Feb-05 13:33N 31°47' E 120°59'8 8.2
2016-Feb-05 12:33N 31°43' E 121°07'9 8.5
2016-Feb-05 11:33N 31°38' E 121°15'3 3.3
2016-Feb-05 10:33N 31°36' E 121°18'0 0.0
2016-Feb-05 09:33N 31°36' E 121°18'0 0.0
2016-Feb-05 08:33N 31°36' E 121°18'0 0.1
2016-Feb-05 07:33N 31°36' E 121°18'4 4.2
2016-Feb-05 06:33N 31°33' E 121°21'9 8.7
2016-Feb-05 05:33N 31°27' E 121°29'1110.6
2016-Feb-05 04:34N 31°21' E 121°39'1010.1
2016-Feb-05 03:33N 31°17' E 121°50'1210.6
2016-Feb-05 02:24N 31°14' E 122°04'379 8.4
2016-Feb-03 05:20N 37°32' E 122°41'910.4
2016-Feb-03 04:31N 37°39' E 122°35'  
2016-Jan-30 22:32N 37°55' E 122°15'1010.2
2016-Jan-30 21:32N 37°50' E 122°26'10 9.2
2016-Jan-30 20:29N 37°44' E 122°36'8 8.6
2016-Jan-30 19:31N 37°39' E 122°44'18 8.2
2016-Jan-30 17:22N 37°23' E 122°53'  
Track history (hours):
 
Tides and Currents Weather Stations Pressure Air Temp Water Temp Dewpoint Dewpoint Depression Visibility Wind Speed Wind Dir Waves Ship Positions

An Xiu Shan

Last reported at 2016-Feb-08 22:28 UTC. Time now 2016-Feb-09 13:55 UTC.
Position N 31°06' E 122°31'.

Length 199 m; draft 7.5 m.

Type: Cargo ship. MMSI: 413195000.

Date/timePositionNaut miles runAvg speedWind from/ knotsBaromVisibWave heightAir tempDewpointWater temp
2016-Feb-08 22:28N 31°06' E 122°31'1111.8
2016-Feb-08 21:31N 31°07' E 122°17'1414.5
2016-Feb-08 20:31N 31°14' E 122°03'1414.7
2016-Feb-08 19:34N 31°18' E 121°47'1212.4
2016-Feb-08 18:33N 31°24' E 121°34'1110.7
2016-Feb-08 17:33N 31°30' E 121°24'10 9.6
2016-Feb-08 16:33N 31°37' E 121°16'1111.2
2016-Feb-08 15:33N 31°44' E 121°06'1312.9
2016-Feb-08 14:32N 31°52' E 120°53'1211.9
2016-Feb-08 13:31N 32°00' E 120°43'1211.9
2016-Feb-08 12:31N 32°04' E 120°30'1512.8
2016-Feb-08 11:20N 31°56' E 120°15'1012.1
2016-Feb-08 10:29N 31°58' E 120°03'  
2016-Feb-05 21:06N 32°10' E 119°54'6 9.6
2016-Feb-05 20:29N 32°04' E 119°56'9 9.5
2016-Feb-05 19:32N 31°58' E 120°03'1010.2
2016-Feb-05 18:31N 31°56' E 120°15'10 9.8
2016-Feb-05 17:33N 31°58' E 120°26'7 6.7
2016-Feb-05 16:28N 32°01' E 120°34'1010.4
2016-Feb-05 15:32N 32°01' E 120°46'9 9.1
2016-Feb-05 14:32N 31°54' E 120°53'9 8.8
2016-Feb-05 13:33N 31°47' E 120°59'8 8.2
2016-Feb-05 12:33N 31°43' E 121°07'9 8.5
2016-Feb-05 11:33N 31°38' E 121°15'3 3.3
2016-Feb-05 10:33N 31°36' E 121°18'0 0.0
2016-Feb-05 09:33N 31°36' E 121°18'0 0.0
2016-Feb-05 08:33N 31°36' E 121°18'0 0.1
2016-Feb-05 07:33N 31°36' E 121°18'4 4.2
2016-Feb-05 06:33N 31°33' E 121°21'9 8.7
2016-Feb-05 05:33N 31°27' E 121°29'1110.6
2016-Feb-05 04:34N 31°21' E 121°39'1010.1
2016-Feb-05 03:33N 31°17' E 121°50'1210.6
2016-Feb-05 02:24N 31°14' E 122°04'379 8.4
2016-Feb-03 05:20N 37°32' E 122°41'910.4
2016-Feb-03 04:31N 37°39' E 122°35'  
2016-Jan-30 22:32N 37°55' E 122°15'1010.2
2016-Jan-30 21:32N 37°50' E 122°26'10 9.2
2016-Jan-30 20:29N 37°44' E 122°36'8 8.6
2016-Jan-30 19:31N 37°39' E 122°44'18 8.2
2016-Jan-30 17:22N 37°23' E 122°53'  

Dump ship's entire track history